createdAt,value
2023-04-16T21:22:47.910Z,1.98
2023-04-16T21:25:15.232Z,2.03
2023-04-16T21:27:42.420Z,2.42
2023-04-16T21:30:10.308Z,1.88
2023-04-16T21:32:37.788Z,2.22
2023-04-16T21:35:05.760Z,1.88
2023-04-16T21:37:33.032Z,2.10
2023-04-16T21:40:00.718Z,2.25
2023-04-16T21:42:28.061Z,2.40
2023-04-16T21:44:55.432Z,2.03
2023-04-16T21:47:25.982Z,1.98
2023-04-16T21:49:53.395Z,2.08
2023-04-16T21:52:20.620Z,2.25
2023-04-16T21:54:47.910Z,1.98
2023-04-16T21:57:15.541Z,1.80
2023-04-16T21:59:42.939Z,2.33
2023-04-16T22:02:10.190Z,2.08
2023-04-16T22:04:38.685Z,1.95
2023-04-16T22:07:08.716Z,2.10
2023-04-16T22:09:36.576Z,2.08
2023-04-16T22:12:06.597Z,1.90
2023-04-16T22:14:40.458Z,2.10
2023-04-16T22:17:11.385Z,1.83
2023-04-16T22:19:39.407Z,1.70
2023-04-16T22:22:06.590Z,1.85
2023-04-16T22:24:33.796Z,1.80
2023-04-16T22:27:01.392Z,1.80
2023-04-16T22:29:28.571Z,1.67
2023-04-16T22:31:55.786Z,2.00
2023-04-16T22:34:23.003Z,1.90
2023-04-16T22:36:50.223Z,1.70
2023-04-16T22:39:17.446Z,1.60
2023-04-16T22:41:44.613Z,1.88
2023-04-16T22:44:11.920Z,1.83
2023-04-16T22:46:39.406Z,1.55
2023-04-16T22:49:06.661Z,1.92
2023-04-16T22:51:34.164Z,1.55
2023-04-16T22:54:01.448Z,1.55
2023-04-16T22:56:30.333Z,1.75
2023-04-16T22:58:57.984Z,1.58
2023-04-16T23:01:25.427Z,1.65
2023-04-16T23:03:53.337Z,1.50
2023-04-16T23:06:20.569Z,1.58
2023-04-16T23:08:47.737Z,2.00
2023-04-16T23:11:14.919Z,1.83
2023-04-16T23:13:42.784Z,1.70
2023-04-16T23:16:10.072Z,1.60
2023-04-16T23:18:37.275Z,1.52
2023-04-16T23:21:04.592Z,1.50
2023-04-16T23:23:31.822Z,1.70
2023-04-16T23:25:58.976Z,1.40
2023-04-16T23:28:26.161Z,1.65
2023-04-16T23:30:53.423Z,1.52
2023-04-16T23:33:20.761Z,1.33
2023-04-16T23:35:48.088Z,1.48
2023-04-16T23:38:15.315Z,1.42
2023-04-16T23:40:42.522Z,1.30
2023-04-16T23:43:09.984Z,1.35
2023-04-16T23:45:37.265Z,1.70
2023-04-16T23:48:04.649Z,1.58
2023-04-16T23:50:32.503Z,1.55
2023-04-16T23:52:59.694Z,1.50
2023-04-16T23:55:26.884Z,1.40
2023-04-16T23:57:54.092Z,1.23
